首页
METAR-TAF:

METAR-TAF

机场 :

西沃萨古尔·拉姆古兰爵士国际机场

毛里求斯, 毛里求斯

纬度: 20-26S, 经度: 057-40E, 海拔: 55米

当前天气观测

该预报发布于34分钟前的13:00 UTC
风速7节,风向东南
温度 23°C
湿度 73%
气压 1017 hPa
能见度10公里或以上
散云层高于1800英尺

METAR: FIMP 161300Z 13007KT 9999 SCT018 23/18 Q1017

时间: 17:34 (13:34 UTC)

预报

该预报发布于2小时和4分钟前的11:30 UTC
预报有效从16日的 12点(UTC)到 17日的 18点(UTC)
风速10节,风向东南
能见度10公里或以上
散云层高于1600英尺
短暂存在
从 16日的 21点(UTC)到 17日的 02点(UTC)
风速3节,风向多变
成为
从 17日的 10点(UTC)到 17日的 12点(UTC)
风速15节,风向南转南东,有时为25节阵风
短暂存在
从 17日的 10点(UTC)到 17日的 18点(UTC)
能見度: 5000
散云层高于1500英尺
多云层高于5000英尺
小阵雨

TAF: FIMP 161130Z 1612/1718 13010KT 9999 SCT016 TEMPO 1621/1702 VRB03KT BECMG 1710/1712 15015G25KT TEMPO 1710/1718 5000 -SHRA SCT015 BKN050

超过4000个机场的气象观测和天气预报(METAR&TAF报告)。

可查询的气象台以黄色和红色小点在地图上表示。

将鼠标移到小点上方,可查看气象台名称。

然后点击查看天气观测和预报。

如需切换地图:点击带黑十字的绿色按钮放大地图;点击带横线的绿色按钮缩小地图;或者点击绿色箭头查看邻近地区的地图。


METAR-TAF: